TimeEDT,TemperatureF,Dew PointF,Humidity,Sea Level PressureIn,VisibilityMPH,Wind Direction,Wind SpeedMPH,Gust SpeedMPH,PrecipitationIn,Events,Conditions,WindDirDegrees,DateUTC
12:53 AM,66.0,62.1,87,29.91,10.0,North,4.6,-,N/A,,Clear,350,2013-09-03 04:53:00
1:53 AM,64.9,61.0,87,29.93,10.0,North,4.6,-,N/A,,Clear,350,2013-09-03 05:53:00
2:53 AM,63.0,60.1,90,29.94,10.0,North,3.5,-,N/A,,Clear,360,2013-09-03 06:53:00
3:53 AM,63.0,60.1,90,29.96,10.0,North,4.6,-,N/A,,Mostly Cloudy,360,2013-09-03 07:53:00
4:53 AM,64.0,59.0,84,29.96,10.0,NNE,6.9,-,N/A,,Partly Cloudy,30,2013-09-03 08:53:00
5:53 AM,62.1,57.0,84,29.99,10.0,NE,5.8,-,N/A,,Scattered Clouds,40,2013-09-03 09:53:00
6:53 AM,60.1,54.0,80,30.01,10.0,North,4.6,-,N/A,,Clear,10,2013-09-03 10:53:00
7:53 AM,59.0,54.0,83,30.03,10.0,North,4.6,-,N/A,,Partly Cloudy,10,2013-09-03 11:53:00
8:53 AM,62.1,52.0,70,30.05,10.0,NE,6.9,-,N/A,,Clear,40,2013-09-03 12:53:00
9:53 AM,64.9,51.1,61,30.06,10.0,NNE,12.7,-,N/A,,Clear,30,2013-09-03 13:53:00
10:53 AM,68.0,51.1,55,30.07,2.0,NNE,13.8,-,N/A,,Clear,30,2013-09-03 14:53:00
11:06 AM,68.0,51.8,56,30.08,10.0,NNE,10.4,-,N/A,,Clear,20,2013-09-03 15:06:00
11:53 AM,70.0,52.0,53,30.06,10.0,NE,8.1,-,N/A,,Clear,40,2013-09-03 15:53:00
12:53 PM,73.0,53.1,49,30.06,10.0,NNE,10.4,-,N/A,,Clear,30,2013-09-03 16:53:00
1:53 PM,73.0,52.0,48,30.05,10.0,North,6.9,-,N/A,,Clear,360,2013-09-03 17:53:00
2:53 PM,73.9,52.0,46,30.05,10.0,NNW,8.1,-,N/A,,Clear,340,2013-09-03 18:53:00
3:53 PM,75.0,53.1,46,30.03,10.0,North,5.8,-,N/A,,Clear,360,2013-09-03 19:53:00
4:53 PM,77.0,54.0,45,30.02,10.0,North,5.8,-,N/A,,Clear,10,2013-09-03 20:53:00
5:53 PM,75.9,54.0,46,30.02,10.0,Variable,6.9,-,N/A,,Clear,0,2013-09-03 21:53:00
6:53 PM,73.0,54.0,51,30.02,10.0,North,5.8,-,N/A,,Clear,350,2013-09-03 22:53:00
7:53 PM,69.1,55.9,63,30.03,10.0,Calm,Calm,-,N/A,,Clear,0,2013-09-03 23:53:00
8:53 PM,63.0,57.9,84,30.04,10.0,Calm,Calm,-,N/A,,Clear,0,2013-09-04 00:53:00
9:53 PM,61.0,57.9,90,30.06,10.0,Calm,Calm,-,N/A,,Clear,0,2013-09-04 01:53:00
10:53 PM,59.0,57.0,93,30.06,10.0,Calm,Calm,-,N/A,,Clear,0,2013-09-04 02:53:00
11:53 PM,57.9,55.9,93,30.07,10.0,Calm,Calm,-,N/A,,Clear,0,2013-09-04 03:53:00